Terminal Aerodrome Forecast
Issued by NWS

Home | Current Version | Previous Version | Text Only | Print | Product List | Glossary Off
Versions: 1 2 3 4 5 6 7 8 9 10 11 12 13 14 15

000
FTUS42 KTBW 262320
TAFPIE
TAF
KPIE 262320Z 2700/2724 09009KT P6SM SCT070
     FM270800 09011KT P6SM SCT250
     FM271500 07007KT P6SM SCT040=

USA.gov is the U.S. government's official web portal to all federal, state and local government web resources and services.